Time;durP1;ratioP1;P1;durP2;ratioP2;P2;SDS_P1;SDS_P2;PMS_P1;PMS_P2;Temp;Humidity;BMP_temperature;BMP_pressure;BME280_temperature;BME280_humidity;BME280_pressure;Samples;Min_cycle;Max_cycle;Signal;HPM_P1;HPM_P2
2021/09/08 00:00:34;;;;;;;15.70;14.13;;;16.00;99.90;;;;;;4950753;29;20472;-84
2021/09/08 00:03:01;;;;;;;15.60;14.00;;;16.00;99.90;;;;;;4950244;29;20478;-84
2021/09/08 00:05:29;;;;;;;14.27;12.87;;;16.00;99.90;;;;;;4951012;29;20446;-84
2021/09/08 00:07:56;;;;;;;15.23;13.70;;;15.90;99.90;;;;;;4950593;29;20489;-84
2021/09/08 00:10:22;;;;;;;13.60;12.47;;;16.00;99.90;;;;;;4951007;29;20460;-84
2021/09/08 00:12:49;;;;;;;14.50;13.13;;;15.90;99.90;;;;;;4950109;29;20490;-84
2021/09/08 00:15:16;;;;;;;14.27;13.00;;;15.90;99.90;;;;;;4950594;29;20454;-84
2021/09/08 00:17:43;;;;;;;17.60;16.07;;;15.80;99.90;;;;;;4949763;29;20821;-84
2021/09/08 00:20:12;;;;;;;17.43;15.93;;;15.70;99.90;;;;;;4950664;29;20453;-84
2021/09/08 00:22:40;;;;;;;15.70;14.33;;;15.70;99.90;;;;;;4950558;29;20465;-83
2021/09/08 00:25:08;;;;;;;14.77;13.30;;;15.70;99.90;;;;;;4950092;29;20459;-84
2021/09/08 00:27:35;;;;;;;16.53;15.00;;;15.60;99.90;;;;;;4950889;29;20447;-84
2021/09/08 00:30:02;;;;;;;14.63;13.10;;;15.60;99.90;;;;;;4950322;29;20465;-84
2021/09/08 00:32:29;;;;;;;14.57;13.27;;;15.60;99.90;;;;;;4949974;29;20475;-84
2021/09/08 00:34:56;;;;;;;15.40;13.90;;;15.60;99.90;;;;;;4950183;29;20963;-84
2021/09/08 00:37:22;;;;;;;15.33;13.93;;;15.60;99.90;;;;;;4950448;29;20473;-84
2021/09/08 00:39:50;;;;;;;14.30;12.90;;;15.60;99.90;;;;;;4950243;29;20457;-84
2021/09/08 00:42:17;;;;;;;14.73;13.20;;;15.50;99.90;;;;;;4949435;29;20494;-84
2021/09/08 00:44:45;;;;;;;19.50;15.07;;;15.50;99.90;;;;;;4950152;29;20482;-84
2021/09/08 00:47:12;;;;;;;17.70;13.00;;;15.50;99.90;;;;;;4950635;29;20455;-84
2021/09/08 00:49:39;;;;;;;13.60;12.40;;;15.50;99.90;;;;;;4950548;29;20639;-84
2021/09/08 00:52:08;;;;;;;16.83;15.33;;;15.50;99.90;;;;;;4949401;29;20487;-84
2021/09/08 00:54:36;;;;;;;17.47;14.23;;;15.50;99.90;;;;;;4949744;29;20458;-84
2021/09/08 00:57:06;;;;;;;16.47;14.77;;;15.50;99.90;;;;;;4949977;29;20457;-84
2021/09/08 00:59:33;;;;;;;15.73;14.13;;;15.40;99.90;;;;;;4949878;29;20452;-83
2021/09/08 01:02:04;;;;;;;15.87;14.37;;;15.40;99.90;;;;;;4949234;29;20479;-84
2021/09/08 01:04:31;;;;;;;15.10;13.70;;;15.40;99.90;;;;;;4951176;29;20464;-82
2021/09/08 01:06:58;;;;;;;15.03;13.60;;;15.40;99.90;;;;;;4949108;29;20456;-82
2021/09/08 01:09:25;;;;;;;15.57;14.13;;;15.40;99.90;;;;;;4950170;29;20496;-82
2021/09/08 01:11:52;;;;;;;17.30;14.60;;;15.30;99.90;;;;;;4949816;29;20480;-82
2021/09/08 01:14:20;;;;;;;15.60;14.20;;;15.30;99.90;;;;;;4949970;29;20468;-83
2021/09/08 01:16:49;;;;;;;16.80;15.10;;;15.30;99.90;;;;;;4949565;29;20466;-83
2021/09/08 01:19:16;;;;;;;15.37;13.90;;;15.30;99.90;;;;;;4949863;29;20450;-83
2021/09/08 01:21:43;;;;;;;15.10;13.70;;;15.20;99.90;;;;;;4949086;29;20486;-83
2021/09/08 01:24:11;;;;;;;15.20;13.73;;;15.20;99.90;;;;;;4949639;29;20455;-83
2021/09/08 01:26:39;;;;;;;16.37;14.70;;;15.20;99.90;;;;;;4950293;29;20459;-83
2021/09/08 01:29:07;;;;;;;16.13;14.47;;;15.20;99.90;;;;;;4949516;29;20493;-83
2021/09/08 01:31:34;;;;;;;16.03;14.57;;;15.10;99.90;;;;;;4949104;29;20462;-83
2021/09/08 01:34:01;;;;;;;16.30;14.80;;;15.10;99.90;;;;;;4953735;29;20459;-82
2021/09/08 01:36:28;;;;;;;17.03;15.37;;;15.10;99.90;;;;;;4957726;29;20670;-81
2021/09/08 01:38:55;;;;;;;16.30;14.60;;;15.10;99.90;;;;;;4952849;29;20469;-83
2021/09/08 01:41:23;;;;;;;16.37;14.67;;;15.10;99.90;;;;;;4949123;29;20497;-83
2021/09/08 01:43:49;;;;;;;16.70;15.00;;;15.00;99.90;;;;;;4950244;29;20466;-83
2021/09/08 01:46:20;;;;;;;17.07;15.27;;;15.00;99.90;;;;;;4950025;29;20451;-83
2021/09/08 01:48:47;;;;;;;15.57;14.10;;;15.00;99.90;;;;;;4949994;29;20577;-83
2021/09/08 01:51:14;;;;;;;16.77;15.07;;;15.00;99.90;;;;;;4950204;29;20457;-84
2021/09/08 01:53:41;;;;;;;15.07;13.57;;;14.90;99.90;;;;;;4949089;29;20487;-83
2021/09/08 01:56:07;;;;;;;15.53;13.67;;;14.90;99.90;;;;;;4950062;29;20455;-83
2021/09/08 01:58:36;;;;;;;17.40;14.10;;;14.90;99.90;;;;;;4950353;29;20450;-83
2021/09/08 02:01:03;;;;;;;18.83;15.20;;;14.90;99.90;;;;;;4949387;29;20456;-83
2021/09/08 02:03:30;;;;;;;17.10;15.60;;;14.90;99.90;;;;;;4948576;29;20475;-84
2021/09/08 02:05:57;;;;;;;17.10;14.80;;;14.80;99.90;;;;;;4950136;29;20464;-83
2021/09/08 02:08:24;;;;;;;18.93;16.97;;;14.80;99.90;;;;;;4949427;29;20497;-83
2021/09/08 02:10:51;;;;;;;16.67;14.83;;;14.80;99.90;;;;;;4949290;29;20455;-83
2021/09/08 02:13:18;;;;;;;16.80;15.20;;;14.80;99.90;;;;;;4949093;29;20491;-83
2021/09/08 02:15:46;;;;;;;16.53;14.83;;;14.80;99.90;;;;;;4949801;29;20883;-83
2021/09/08 02:18:13;;;;;;;19.07;17.17;;;14.70;99.90;;;;;;4950783;29;20454;-83
2021/09/08 02:20:39;;;;;;;19.57;17.50;;;14.70;99.90;;;;;;4953343;29;20457;-83
2021/09/08 02:23:06;;;;;;;18.10;16.37;;;14.70;99.90;;;;;;4953260;29;20468;-83
2021/09/08 02:25:33;;;;;;;21.83;18.03;;;14.70;99.90;;;;;;4953932;29;20462;-82
2021/09/08 02:28:00;;;;;;;19.07;17.10;;;14.70;99.90;;;;;;4957933;29;20442;-82
2021/09/08 02:30:26;;;;;;;21.90;19.23;;;14.60;99.90;;;;;;4957272;29;20501;-82
2021/09/08 02:32:54;;;;;;;18.70;16.90;;;14.60;99.90;;;;;;4953737;29;20478;-83
2021/09/08 02:35:21;;;;;;;19.73;17.73;;;14.60;99.90;;;;;;4952596;29;20454;-83
2021/09/08 02:37:48;;;;;;;20.63;18.50;;;14.60;99.90;;;;;;4953401;29;20462;-83
2021/09/08 02:40:15;;;;;;;19.73;17.80;;;14.50;99.90;;;;;;4953101;29;20447;-83
2021/09/08 02:42:41;;;;;;;20.80;18.60;;;14.50;99.90;;;;;;4951554;29;20477;-83
2021/09/08 02:45:09;;;;;;;19.30;16.70;;;14.50;99.90;;;;;;4952780;29;20453;-83
2021/09/08 02:47:35;;;;;;;19.40;17.50;;;14.50;99.90;;;;;;4951513;29;20460;-83
2021/09/08 02:50:04;;;;;;;17.97;16.17;;;14.40;99.90;;;;;;4951780;29;20484;-83
2021/09/08 02:52:31;;;;;;;17.20;15.67;;;14.40;99.90;;;;;;4951783;29;20474;-83
2021/09/08 02:54:57;;;;;;;21.17;17.13;;;14.40;99.90;;;;;;4952336;29;20457;-82
2021/09/08 02:57:24;;;;;;;19.53;17.43;;;14.40;99.90;;;;;;4952887;29;20454;-83
2021/09/08 02:59:51;;;;;;;19.90;17.80;;;14.30;99.90;;;;;;4952433;29;20529;-83
2021/09/08 03:02:17;;;;;;;18.07;16.23;;;14.30;99.90;;;;;;4951160;29;20470;-83
2021/09/08 03:04:44;;;;;;;19.63;17.60;;;14.30;99.90;;;;;;4952124;29;20458;-82
2021/09/08 03:07:12;;;;;;;18.33;16.53;;;14.30;99.90;;;;;;4952411;29;20810;-83
2021/09/08 03:09:39;;;;;;;17.77;15.07;;;14.30;99.90;;;;;;4951532;29;20508;-82
2021/09/08 03:12:06;;;;;;;17.37;15.80;;;14.30;99.90;;;;;;4952191;29;20469;-82
2021/09/08 03:14:33;;;;;;;19.17;17.27;;;14.30;99.90;;;;;;4952237;29;20456;-82
2021/09/08 03:17:00;;;;;;;23.10;18.73;;;14.20;99.90;;;;;;4952755;29;20455;-83
2021/09/08 03:19:26;;;;;;;21.53;19.47;;;14.20;99.90;;;;;;4952167;29;20447;-82
2021/09/08 03:21:53;;;;;;;19.50;17.47;;;14.20;99.90;;;;;;4951345;29;21011;-83
2021/09/08 03:24:21;;;;;;;19.90;17.97;;;14.20;99.90;;;;;;4952521;29;20927;-83
2021/09/08 03:26:48;;;;;;;20.63;18.53;;;14.20;99.90;;;;;;4952538;29;20450;-83
2021/09/08 03:29:15;;;;;;;18.53;16.03;;;14.10;99.90;;;;;;4952766;29;20481;-83
2021/09/08 03:31:41;;;;;;;19.43;17.50;;;14.10;99.90;;;;;;4952025;29;20485;-82
2021/09/08 03:34:08;;;;;;;19.80;16.47;;;14.10;99.90;;;;;;4952612;29;20472;-82
2021/09/08 03:36:35;;;;;;;18.93;16.93;;;14.10;99.90;;;;;;4950307;29;20453;-83
2021/09/08 03:39:01;;;;;;;18.60;16.70;;;14.10;99.90;;;;;;4950263;29;20454;-83
2021/09/08 03:41:29;;;;;;;20.10;17.97;;;14.10;99.90;;;;;;4950051;29;20464;-82
2021/09/08 03:43:56;;;;;;;18.90;16.93;;;14.00;99.90;;;;;;4951081;29;20465;-82
2021/09/08 03:46:23;;;;;;;18.13;16.43;;;14.00;99.90;;;;;;4951640;29;20461;-83
2021/09/08 03:48:50;;;;;;;17.00;15.30;;;14.00;99.90;;;;;;4950809;29;20489;-83
2021/09/08 03:51:16;;;;;;;21.17;19.20;;;14.00;99.90;;;;;;4950767;29;20461;-83
2021/09/08 03:53:43;;;;;;;18.73;16.73;;;14.00;99.90;;;;;;4949631;29;20477;-83
2021/09/08 03:56:10;;;;;;;20.07;18.10;;;13.90;99.90;;;;;;4950812;29;20465;-83
2021/09/08 03:58:38;;;;;;;18.70;16.80;;;13.90;99.90;;;;;;4950575;29;20458;-82
2021/09/08 04:01:05;;;;;;;19.93;17.57;;;13.90;99.90;;;;;;4950592;29;20461;-82
2021/09/08 04:03:31;;;;;;;21.93;18.40;;;13.80;99.90;;;;;;4950007;29;20477;-82
2021/09/08 04:05:58;;;;;;;21.53;19.37;;;13.80;99.90;;;;;;4950965;29;20460;-82
2021/09/08 04:08:25;;;;;;;22.40;20.00;;;13.80;99.90;;;;;;4950565;29;20450;-82
2021/09/08 04:10:51;;;;;;;22.93;20.67;;;13.80;99.90;;;;;;4950581;29;20500;-83
2021/09/08 04:13:18;;;;;;;22.47;20.27;;;13.80;99.90;;;;;;4949364;29;20843;-82
2021/09/08 04:15:46;;;;;;;21.50;19.33;;;13.80;99.90;;;;;;4950692;29;20465;-81
2021/09/08 04:18:13;;;;;;;21.10;18.67;;;13.80;99.90;;;;;;4949809;29;20451;-83
2021/09/08 04:20:40;;;;;;;19.90;17.77;;;13.80;99.90;;;;;;4950890;29;20490;-83
2021/09/08 04:23:07;;;;;;;20.07;18.03;;;13.70;99.90;;;;;;4949942;29;20469;-82
2021/09/08 04:25:34;;;;;;;20.77;18.63;;;13.70;99.90;;;;;;4950162;29;20461;-83
2021/09/08 04:28:00;;;;;;;19.93;17.93;;;13.70;99.90;;;;;;4950009;29;20459;-82
2021/09/08 04:30:27;;;;;;;20.87;18.83;;;13.70;99.90;;;;;;4950577;29;20454;-82
2021/09/08 04:32:55;;;;;;;20.43;16.83;;;13.70;99.90;;;;;;4949736;29;20466;-82
2021/09/08 04:35:22;;;;;;;19.93;17.83;;;13.70;99.90;;;;;;4949968;29;20449;-83
2021/09/08 04:37:48;;;;;;;20.60;18.50;;;13.70;99.90;;;;;;4949923;29;20458;-83
2021/09/08 04:40:15;;;;;;;21.77;19.57;;;13.70;99.90;;;;;;4949646;29;20492;-82
2021/09/08 04:42:42;;;;;;;18.37;16.50;;;13.60;99.90;;;;;;4948872;29;21016;-83
2021/09/08 04:45:10;;;;;;;21.00;18.87;;;13.60;99.90;;;;;;4949980;29;20468;-82
2021/09/08 04:47:37;;;;;;;19.40;17.33;;;13.60;99.90;;;;;;4950108;29;20449;-82
2021/09/08 04:50:06;;;;;;;23.53;21.03;;;13.60;99.90;;;;;;4949869;29;20450;-82
2021/09/08 04:52:35;;;;;;;20.40;18.23;;;13.60;99.90;;;;;;4948537;29;20479;-82
2021/09/08 04:55:02;;;;;;;21.53;19.20;;;13.60;99.90;;;;;;4949739;29;20490;-83
2021/09/08 04:57:29;;;;;;;21.10;18.93;;;13.60;99.90;;;;;;4950449;29;20458;-84
2021/09/08 04:59:55;;;;;;;22.73;20.40;;;13.60;99.90;;;;;;4949360;29;20496;-82
2021/09/08 05:02:22;;;;;;;21.27;19.10;;;13.60;99.90;;;;;;4953593;29;20460;-82
2021/09/08 05:04:49;;;;;;;23.20;19.67;;;13.60;99.90;;;;;;4957959;29;20450;-82
2021/09/08 05:07:17;;;;;;;21.80;18.60;;;13.60;99.90;;;;;;4953011;29;20453;-83
2021/09/08 05:09:43;;;;;;;22.50;18.77;;;13.60;99.90;;;;;;4950022;29;20450;-84
2021/09/08 05:12:21;;;;;;;22.23;19.90;;;13.60;99.90;;;;;;4949579;29;20544;-84
2021/09/08 05:14:48;;;;;;;20.67;18.50;;;13.60;99.90;;;;;;4950465;29;20464;-83
2021/09/08 05:17:15;;;;;;;19.67;17.67;;;13.50;99.90;;;;;;4949621;29;20457;-83
2021/09/08 05:19:41;;;;;;;21.27;18.73;;;13.50;99.90;;;;;;4949951;29;20485;-82
2021/09/08 05:22:08;;;;;;;22.53;20.20;;;13.50;99.90;;;;;;4948904;29;20488;-83
2021/09/08 05:24:36;;;;;;;21.23;18.60;;;13.50;99.90;;;;;;4949778;29;20457;-83
2021/09/08 05:27:03;;;;;;;22.50;20.30;;;13.50;99.90;;;;;;4949566;29;20449;-83
2021/09/08 05:29:30;;;;;;;22.57;20.17;;;13.60;99.90;;;;;;4948928;29;20457;-83
2021/09/08 05:31:57;;;;;;;27.03;19.40;;;13.60;99.90;;;;;;4949047;29;20481;-84
2021/09/08 05:34:24;;;;;;;21.23;18.63;;;13.60;99.90;;;;;;4948647;29;20456;-83
2021/09/08 05:36:50;;;;;;;22.53;20.13;;;13.60;99.90;;;;;;4949133;29;20480;-83
2021/09/08 05:39:17;;;;;;;26.40;21.70;;;13.60;99.90;;;;;;4948937;29;20462;-83
2021/09/08 05:41:45;;;;;;;25.70;22.80;;;13.60;99.90;;;;;;4948726;29;21252;-82
2021/09/08 05:44:12;;;;;;;23.73;21.33;;;13.70;99.90;;;;;;4949640;29;20455;-82
2021/09/08 05:46:39;;;;;;;24.07;21.57;;;13.70;99.90;;;;;;4949182;29;21017;-82
2021/09/08 05:49:05;;;;;;;23.90;20.67;;;13.70;99.90;;;;;;4948919;29;20458;-82
2021/09/08 05:51:32;;;;;;;24.80;21.87;;;13.80;99.90;;;;;;4948861;29;20457;-84
2021/09/08 05:53:59;;;;;;;24.00;21.40;;;13.90;99.90;;;;;;4951807;29;20825;-82
2021/09/08 05:56:26;;;;;;;25.50;20.90;;;13.90;99.90;;;;;;4952003;29;20424;-84
2021/09/08 05:58:54;;;;;;;23.10;20.80;;;14.00;99.90;;;;;;4955865;29;20434;-81
2021/09/08 06:01:20;;;;;;;27.33;22.37;;;14.00;99.90;;;;;;4956006;29;20488;-84
2021/09/08 06:03:47;;;;;;;23.13;20.70;;;14.00;99.90;;;;;;4954695;29;20457;-84
2021/09/08 06:06:14;;;;;;;28.97;22.93;;;14.10;99.90;;;;;;4953189;29;20453;-83
2021/09/08 06:08:40;;;;;;;27.50;24.73;;;14.20;99.90;;;;;;4953336;29;20449;-81
2021/09/08 06:11:08;;;;;;;27.17;22.17;;;14.30;99.90;;;;;;4953140;29;20851;-84
2021/09/08 06:13:35;;;;;;;24.80;21.97;;;14.30;99.90;;;;;;4952039;29;20483;-83
2021/09/08 06:16:04;;;;;;;22.47;20.10;;;14.40;99.90;;;;;;4952867;29;20454;-83
2021/09/08 06:18:31;;;;;;;24.30;21.17;;;14.50;99.90;;;;;;4953039;29;20480;-83
2021/09/08 06:20:58;;;;;;;22.47;20.20;;;14.60;99.90;;;;;;4953347;29;20517;-83
2021/09/08 06:23:24;;;;;;;25.37;22.87;;;14.70;99.90;;;;;;4952298;29;20482;-83
2021/09/08 06:25:51;;;;;;;25.20;22.70;;;14.80;99.90;;;;;;4954288;29;20458;-83
2021/09/08 06:28:18;;;;;;;23.60;19.60;;;15.00;99.90;;;;;;4953724;29;20466;-83
2021/09/08 06:30:45;;;;;;;21.33;19.20;;;15.00;99.90;;;;;;4952806;29;20468;-83
2021/09/08 06:33:13;;;;;;;22.83;18.20;;;15.20;99.90;;;;;;4953625;29;20478;-83
2021/09/08 06:35:40;;;;;;;20.90;18.53;;;15.30;99.90;;;;;;4954726;29;20447;-83
2021/09/08 06:38:07;;;;;;;23.50;21.00;;;15.30;99.90;;;;;;4954696;29;20461;-82
2021/09/08 06:40:34;;;;;;;20.03;17.93;;;15.40;99.90;;;;;;4954577;29;20487;-83
2021/09/08 06:43:01;;;;;;;21.67;19.47;;;15.50;99.90;;;;;;4938944;29;20587;-84
2021/09/08 06:45:28;;;;;;;20.40;18.30;;;15.60;99.90;;;;;;4942926;29;20455;-83
2021/09/08 06:47:55;;;;;;;18.80;17.00;;;15.70;99.90;;;;;;4942163;29;20443;-83
2021/09/08 06:50:29;;;;;;;16.57;14.90;;;15.90;99.90;;;;;;4945874;29;20459;-83
2021/09/08 06:52:56;;;;;;;17.40;15.70;;;15.90;99.90;;;;;;4938301;29;20994;-84
2021/09/08 06:55:23;;;;;;;17.37;15.57;;;16.10;99.90;;;;;;4945397;29;20454;-84
2021/09/08 06:57:50;;;;;;;17.33;15.57;;;16.20;99.90;;;;;;4943226;29;20448;-84
2021/09/08 07:00:17;;;;;;;15.83;13.93;;;16.30;99.90;;;;;;4945697;29;20586;-84
2021/09/08 07:02:44;;;;;;;17.37;15.40;;;16.40;99.90;;;;;;4939327;29;20484;-83
2021/09/08 07:05:11;;;;;;;15.67;12.50;;;16.50;99.90;;;;;;4941626;29;20449;-85
2021/09/08 07:07:39;;;;;;;12.57;11.30;;;16.70;99.90;;;;;;4941236;29;20448;-84
2021/09/08 07:10:06;;;;;;;13.37;11.90;;;16.80;99.90;;;;;;4955411;29;20464;-84
2021/09/08 07:12:33;;;;;;;12.37;11.27;;;17.00;99.90;;;;;;4952450;29;20485;-83
2021/09/08 07:14:59;;;;;;;11.80;10.60;;;17.10;99.90;;;;;;4952194;29;20444;-83
2021/09/08 07:17:26;;;;;;;11.47;10.07;;;17.20;99.90;;;;;;4953318;29;20456;-83
2021/09/08 07:19:53;;;;;;;10.37;9.37;;;17.30;99.90;;;;;;4953132;29;20490;-83
2021/09/08 07:22:19;;;;;;;10.23;9.20;;;17.40;99.90;;;;;;4953223;29;20469;-84
2021/09/08 07:24:47;;;;;;;12.37;10.50;;;17.60;99.90;;;;;;4953392;29;20456;-83
2021/09/08 07:27:14;;;;;;;9.93;9.10;;;17.70;99.90;;;;;;4952768;29;20465;-83
2021/09/08 07:29:41;;;;;;;10.73;9.73;;;17.80;99.90;;;;;;4947559;29;20445;-83
2021/09/08 07:32:08;;;;;;;11.60;10.40;;;18.00;99.90;;;;;;4951925;29;20473;-83
2021/09/08 07:34:35;;;;;;;10.10;9.20;;;18.10;99.90;;;;;;4953595;29;20485;-82
2021/09/08 07:37:03;;;;;;;11.50;10.40;;;18.20;99.90;;;;;;4952923;29;20446;-82
2021/09/08 07:39:30;;;;;;;11.03;10.03;;;18.40;99.90;;;;;;4953466;29;21011;-82
2021/09/08 07:41:58;;;;;;;10.83;9.73;;;18.40;99.90;;;;;;4951830;29;20500;-81
2021/09/08 07:44:25;;;;;;;10.27;9.20;;;18.50;99.90;;;;;;4952346;29;20464;-83
2021/09/08 07:46:51;;;;;;;9.47;8.57;;;18.50;99.90;;;;;;4951618;29;20457;-83
2021/09/08 07:49:18;;;;;;;10.67;9.57;;;18.60;99.90;;;;;;4952753;29;20457;-83
2021/09/08 07:51:45;;;;;;;10.67;9.60;;;18.70;99.90;;;;;;4953297;29;20537;-82
2021/09/08 07:54:11;;;;;;;10.00;9.10;;;18.80;99.90;;;;;;4954583;29;20459;-82
2021/09/08 07:56:38;;;;;;;10.20;8.70;;;18.90;99.90;;;;;;4953484;29;20457;-84
2021/09/08 07:59:06;;;;;;;9.83;8.93;;;18.90;99.90;;;;;;4953368;29;20449;-82
2021/09/08 08:01:34;;;;;;;11.23;9.30;;;19.00;99.90;;;;;;4951243;29;20493;-81
2021/09/08 08:04:01;;;;;;;12.97;10.10;;;19.10;99.90;;;;;;4952419;29;20458;-81
2021/09/08 08:06:28;;;;;;;15.80;14.50;;;19.20;99.90;;;;;;4951591;29;20462;-84
2021/09/08 08:08:55;;;;;;;9.30;8.40;;;19.20;99.90;;;;;;4951432;29;20463;-81
2021/09/08 08:11:22;;;;;;;11.53;9.93;;;19.40;99.70;;;;;;4948523;29;20457;-82
2021/09/08 08:13:48;;;;;;;10.23;9.23;;;19.40;99.20;;;;;;4946541;29;20445;-84
2021/09/08 08:16:17;;;;;;;9.77;8.97;;;19.50;98.70;;;;;;4946207;29;20449;-84
2021/09/08 08:18:43;;;;;;;9.60;8.70;;;19.50;98.90;;;;;;4948852;29;20461;-84
2021/09/08 08:21:10;;;;;;;9.80;9.00;;;19.60;98.70;;;;;;4948771;29;20489;-83
2021/09/08 08:23:37;;;;;;;9.40;8.13;;;19.70;98.50;;;;;;4948631;29;20499;-82
2021/09/08 08:26:04;;;;;;;8.63;7.80;;;19.70;97.80;;;;;;4950010;29;20452;-82
2021/09/08 08:28:31;;;;;;;8.67;7.97;;;19.80;98.50;;;;;;4949012;29;20463;-82
2021/09/08 08:30:59;;;;;;;8.80;7.70;;;19.80;97.80;;;;;;4943095;29;20471;-82
2021/09/08 08:33:27;;;;;;;9.30;8.40;;;19.90;97.50;;;;;;4930782;29;20473;-82
2021/09/08 08:35:54;;;;;;;9.60;8.60;;;20.00;97.70;;;;;;4933969;29;20446;-81
2021/09/08 08:38:20;;;;;;;8.00;6.83;;;20.10;97.30;;;;;;4934860;29;20458;-83
2021/09/08 08:40:47;;;;;;;9.00;7.80;;;20.20;97.40;;;;;;4932116;29;20490;-83
2021/09/08 08:43:14;;;;;;;8.40;7.60;;;20.30;96.90;;;;;;4932045;29;20478;-82
2021/09/08 08:45:41;;;;;;;9.33;8.43;;;20.40;96.20;;;;;;4932397;29;20457;-82
2021/09/08 08:48:08;;;;;;;8.53;7.77;;;20.50;96.00;;;;;;4931283;29;20456;-83
2021/09/08 08:50:37;;;;;;;8.87;8.07;;;20.60;96.10;;;;;;4929790;29;20458;-82
2021/09/08 08:53:03;;;;;;;7.43;6.83;;;20.60;97.00;;;;;;4930483;29;20471;-81
2021/09/08 08:55:30;;;;;;;9.23;8.43;;;20.70;96.70;;;;;;4933538;29;20455;-82
2021/09/08 08:57:59;;;;;;;7.83;7.13;;;20.90;96.50;;;;;;4933426;29;20461;-80
2021/09/08 09:00:26;;;;;;;10.57;9.47;;;21.00;96.70;;;;;;4932008;29;20487;-82
2021/09/08 09:02:54;;;;;;;8.47;7.67;;;21.10;96.10;;;;;;4930127;29;20486;-81
2021/09/08 09:05:33;;;;;;;8.30;7.50;;;21.10;94.90;;;;;;4931703;29;20455;-81
2021/09/08 09:08:02;;;;;;;8.53;7.73;;;21.20;95.60;;;;;;4938186;29;20461;-85
2021/09/08 09:10:29;;;;;;;8.37;7.57;;;21.40;95.40;;;;;;4963585;29;20450;-83
2021/09/08 09:12:56;;;;;;;10.07;9.00;;;21.50;95.50;;;;;;4948204;29;20475;-82
2021/09/08 09:15:24;;;;;;;9.50;8.70;;;21.60;94.90;;;;;;4948650;29;20536;-84
2021/09/08 09:17:52;;;;;;;9.50;8.60;;;21.70;95.40;;;;;;4935103;29;20963;-83
2021/09/08 09:20:22;;;;;;;9.20;8.33;;;21.80;95.40;;;;;;4949690;29;20467;-79
2021/09/08 09:22:51;;;;;;;8.50;7.70;;;21.90;94.40;;;;;;4948153;29;20503;-83
2021/09/08 09:25:21;;;;;;;12.13;10.93;;;22.00;94.50;;;;;;4948768;29;20466;-85
2021/09/08 09:27:50;;;;;;;11.07;10.20;;;22.10;92.50;;;;;;4946643;29;20465;-82
2021/09/08 09:30:19;;;;;;;10.97;9.77;;;22.20;93.10;;;;;;4944730;29;20465;-83
2021/09/08 09:32:48;;;;;;;8.30;7.53;;;22.20;92.90;;;;;;4940737;29;20480;-84
2021/09/08 09:35:17;;;;;;;9.50;8.10;;;22.30;92.70;;;;;;4940365;29;20459;-83
2021/09/08 09:37:45;;;;;;;10.00;9.10;;;22.40;92.50;;;;;;4939206;29;20839;-83
2021/09/08 09:40:14;;;;;;;8.97;8.17;;;22.50;92.80;;;;;;4940905;29;20457;-83
2021/09/08 09:42:43;;;;;;;8.57;7.93;;;22.60;92.40;;;;;;4938164;29;20497;-83
2021/09/08 09:45:11;;;;;;;9.03;8.13;;;22.70;92.90;;;;;;4937501;29;20453;-83
2021/09/08 09:47:39;;;;;;;9.23;8.40;;;22.80;92.10;;;;;;4939249;29;20465;-84
2021/09/08 09:50:08;;;;;;;10.63;9.67;;;22.90;92.50;;;;;;4938572;29;20457;-83
2021/09/08 09:52:35;;;;;;;8.43;7.73;;;23.10;92.40;;;;;;4937271;29;20539;-83
2021/09/08 09:55:03;;;;;;;8.37;7.70;;;23.10;92.00;;;;;;4938106;29;20454;-85
2021/09/08 09:57:30;;;;;;;9.13;8.33;;;23.30;93.30;;;;;;4938377;29;20465;-85
2021/09/08 10:00:02;;;;;;;9.50;8.70;;;23.30;92.30;;;;;;4943617;29;20462;-84
2021/09/08 10:02:29;;;;;;;8.43;7.73;;;23.40;92.20;;;;;;4947106;29;20516;-82
2021/09/08 10:04:55;;;;;;;8.93;8.03;;;23.50;92.00;;;;;;4943312;29;20484;-82
2021/09/08 10:07:23;;;;;;;9.63;8.77;;;23.70;92.90;;;;;;4936490;29;20453;-83
2021/09/08 10:09:51;;;;;;;9.60;8.60;;;23.80;91.30;;;;;;4936070;29;20470;-83
2021/09/08 10:12:22;;;;;;;9.40;8.60;;;23.90;92.50;;;;;;4935147;29;20482;-84
2021/09/08 10:14:50;;;;;;;9.03;8.23;;;24.10;92.70;;;;;;4937110;29;20473;-85
2021/09/08 10:17:19;;;;;;;10.20;9.40;;;24.20;91.10;;;;;;4936509;29;20460;-84
2021/09/08 10:19:49;;;;;;;10.47;9.47;;;24.30;90.30;;;;;;4936951;29;20462;-83
2021/09/08 10:22:16;;;;;;;9.60;8.67;;;24.40;90.70;;;;;;4935563;29;20506;-84
2021/09/08 10:24:47;;;;;;;9.90;9.00;;;24.50;90.80;;;;;;4936241;29;20485;-83
2021/09/08 10:27:22;;;;;;;9.80;8.90;;;24.70;91.00;;;;;;4935782;29;21124;-83
2021/09/08 10:29:51;;;;;;;8.57;7.80;;;24.70;90.10;;;;;;4935470;29;20823;-84
2021/09/08 10:32:20;;;;;;;11.67;10.63;;;24.80;91.30;;;;;;4934938;29;20471;-85
2021/09/08 10:34:49;;;;;;;9.83;9.03;;;25.00;91.30;;;;;;4935162;29;20467;-84
2021/09/08 10:37:17;;;;;;;10.90;9.60;;;25.10;90.60;;;;;;4935182;29;20466;-83
2021/09/08 10:39:45;;;;;;;9.60;8.77;;;25.20;89.90;;;;;;4923948;29;20471;-84
2021/09/08 10:42:12;;;;;;;10.00;9.10;;;25.40;89.80;;;;;;4921754;29;20503;-84
2021/09/08 10:44:46;;;;;;;8.67;7.93;;;25.50;89.80;;;;;;4922230;29;20464;-84
2021/09/08 10:47:15;;;;;;;9.30;8.60;;;25.70;87.80;;;;;;4922939;29;20532;-84
2021/09/08 10:49:52;;;;;;;9.77;8.97;;;25.80;86.60;;;;;;4922754;29;20467;-83
2021/09/08 10:52:45;;;;;;;9.50;8.70;;;26.00;87.50;;;;;;4924427;29;20565;-84
2021/09/08 10:55:23;;;;;;;8.70;7.90;;;26.20;89.10;;;;;;4924956;29;20445;-83
2021/09/08 10:58:02;;;;;;;8.40;7.60;;;26.30;85.90;;;;;;4924732;29;20470;-84
2021/09/08 11:00:40;;;;;;;8.83;8.13;;;26.70;84.70;;;;;;4923172;29;20849;-83
2021/09/08 11:03:23;;;;;;;11.10;8.17;;;27.10;82.60;;;;;;4924341;29;20511;-83
2021/09/08 11:05:54;;;;;;;9.73;8.83;;;27.50;82.40;;;;;;4923861;29;20446;-83
2021/09/08 11:08:23;;;;;;;9.03;8.23;;;28.00;80.80;;;;;;4922709;29;20461;-84
2021/09/08 11:10:50;;;;;;;8.77;8.07;;;28.70;81.90;;;;;;4923697;29;20465;-83
2021/09/08 11:13:26;;;;;;;8.40;7.70;;;29.30;79.80;;;;;;4921804;29;20482;-83
2021/09/08 11:15:53;;;;;;;8.90;7.97;;;30.00;76.80;;;;;;4946048;29;20451;-83
2021/09/08 11:18:19;;;;;;;9.50;8.70;;;30.70;74.10;;;;;;4951726;29;20466;-84
2021/09/08 11:20:46;;;;;;;9.77;8.97;;;31.50;72.60;;;;;;4928206;29;20464;-83
2021/09/08 11:23:16;;;;;;;9.10;8.47;;;32.00;66.40;;;;;;4924176;29;20474;-83
2021/09/08 11:25:44;;;;;;;8.53;7.93;;;32.70;64.50;;;;;;4925035;29;20549;-82
2021/09/08 11:28:12;;;;;;;9.67;8.87;;;33.10;62.10;;;;;;4923740;29;20461;-83
2021/09/08 11:30:40;;;;;;;9.30;8.47;;;33.40;59.20;;;;;;4925954;29;20452;-83
2021/09/08 11:33:10;;;;;;;8.63;7.83;;;33.60;57.90;;;;;;4920586;29;21142;-85
2021/09/08 11:35:43;;;;;;;9.13;8.27;;;33.70;56.00;;;;;;4925502;29;20450;-83
2021/09/08 11:38:12;;;;;;;9.80;9.00;;;33.50;54.70;;;;;;4923915;29;20461;-81
2021/09/08 11:40:45;;;;;;;8.87;8.17;;;33.60;55.60;;;;;;4924470;29;20465;-84
2021/09/08 11:43:13;;;;;;;8.90;8.10;;;33.80;55.00;;;;;;4928130;29;20490;-85
2021/09/08 11:45:40;;;;;;;8.40;7.80;;;34.00;56.30;;;;;;4924523;29;20538;-84
2021/09/08 11:48:07;;;;;;;8.07;7.37;;;34.30;56.50;;;;;;4920825;29;20571;-83
2021/09/08 11:50:34;;;;;;;10.27;9.10;;;34.70;55.40;;;;;;4921498;29;20462;-81
2021/09/08 11:53:02;;;;;;;8.87;7.97;;;35.20;55.50;;;;;;4920027;29;20501;-81
2021/09/08 11:55:31;;;;;;;7.67;7.17;;;35.70;52.50;;;;;;4921301;29;20462;-80
2021/09/08 11:58:21;;;;;;;9.00;8.27;;;36.10;51.80;;;;;;4921682;29;20461;-80
2021/09/08 12:00:55;;;;;;;8.43;7.83;;;36.60;49.60;;;;;;4921672;29;20507;-80
2021/09/08 12:03:22;;;;;;;7.40;6.80;;;36.90;48.40;;;;;;4922037;29;20474;-80
2021/09/08 12:05:49;;;;;;;9.13;8.30;;;37.20;46.70;;;;;;4921623;29;20455;-80
2021/09/08 12:08:19;;;;;;;8.07;7.47;;;37.30;44.70;;;;;;4921799;29;20451;-80
2021/09/08 12:10:46;;;;;;;9.70;9.00;;;37.40;46.30;;;;;;4924037;29;20455;-80
2021/09/08 12:13:29;;;;;;;8.30;7.60;;;37.60;46.40;;;;;;4921437;29;20502;-80
2021/09/08 12:15:56;;;;;;;8.53;7.83;;;37.70;46.00;;;;;;4921896;29;20886;-81
2021/09/08 12:18:22;;;;;;;8.70;8.10;;;38.10;46.40;;;;;;4922312;29;20458;-80
2021/09/08 12:20:49;;;;;;;7.10;6.60;;;38.30;43.40;;;;;;4922082;29;20973;-80
2021/09/08 12:23:24;;;;;;;6.83;6.40;;;38.40;42.30;;;;;;4921646;29;20524;-81
2021/09/08 12:26:07;;;;;;;6.77;6.27;;;38.50;42.90;;;;;;4922482;29;20459;-80
2021/09/08 12:28:35;;;;;;;7.33;6.83;;;38.90;41.20;;;;;;4920551;29;20463;-81
2021/09/08 12:31:17;;;;;;;6.50;6.10;;;39.20;38.90;;;;;;4920675;29;20455;-81
2021/09/08 12:33:54;;;;;;;7.53;6.93;;;38.80;37.20;;;;;;4921786;29;20837;-81
2021/09/08 12:36:21;;;;;;;5.73;5.43;;;38.60;40.50;;;;;;4921803;29;20465;-81